Terminal Aerodrome Forecast
Issued by NWS

Home | Current Version | Previous Version | Text Only | Print | Product List | Glossary On
Versions: 1 2 3 4 5 6 7 8 9 10 11 12 13 14 15 16 17 18
000
FTUS44 KMAF 210520
TAFCNM
TAF
KCNM 210520Z 2106/2206 32009KT P6SM SCT200
     FM211400 02008KT P6SM OVC035
     FM220000 10006KT P6SM BKN200
     FM220400 11006KT P6SM OVC035=

USA.gov is the U.S. government's official web portal to all federal, state and local government web resources and services.